createdAt,value
2019-06-10T00:02:07.916Z,23.80
2019-06-10T00:04:37.497Z,23.90
2019-06-10T00:07:07.467Z,23.90
2019-06-10T00:09:37.401Z,23.80
2019-06-10T00:12:08.131Z,23.90
2019-06-10T00:14:38.680Z,23.80
2019-06-10T00:17:10.762Z,23.60
2019-06-10T00:19:40.937Z,23.60
2019-06-10T00:22:11.643Z,23.50
2019-06-10T00:24:41.665Z,23.50
2019-06-10T00:27:11.983Z,23.50
2019-06-10T00:29:41.718Z,23.50
2019-06-10T00:32:13.050Z,23.30
2019-06-10T00:34:42.395Z,23.30
2019-06-10T00:37:14.743Z,23.20
2019-06-10T00:39:43.299Z,23.20
2019-06-10T00:42:15.120Z,23.20
2019-06-10T00:44:44.045Z,23.20
2019-06-10T00:47:15.239Z,23.20
2019-06-10T00:49:45.039Z,23.10
2019-06-10T00:52:14.604Z,23.00
2019-06-10T00:54:44.239Z,23.20
2019-06-10T00:57:13.875Z,23.20
2019-06-10T00:59:43.418Z,23.10
2019-06-10T01:02:14.478Z,23.10
2019-06-10T01:04:45.316Z,23.00
2019-06-10T01:07:15.116Z,23.00
2019-06-10T01:09:44.695Z,22.90
2019-06-10T01:12:14.961Z,22.90
2019-06-10T01:14:44.662Z,22.90
2019-06-10T01:17:15.466Z,22.90
2019-06-10T01:19:45.355Z,22.80
2019-06-10T01:22:15.935Z,22.80
2019-06-10T01:24:45.975Z,22.90
2019-06-10T01:27:15.603Z,22.90
2019-06-10T01:29:45.250Z,23.00
2019-06-10T01:32:15.117Z,23.10
2019-06-10T01:34:44.882Z,23.10
2019-06-10T01:37:16.015Z,23.10
2019-06-10T01:39:45.691Z,23.00
2019-06-10T01:42:15.892Z,22.90
2019-06-10T01:44:46.787Z,23.00
2019-06-10T01:47:17.588Z,22.90
2019-06-10T01:49:47.467Z,22.90
2019-06-10T01:52:18.358Z,22.90
2019-06-10T01:54:48.086Z,22.90
2019-06-10T01:57:21.262Z,22.90
2019-06-10T01:59:50.916Z,22.80
2019-06-10T02:02:23.961Z,22.90
2019-06-10T02:04:53.626Z,23.00
2019-06-10T02:07:23.532Z,23.10
2019-06-10T02:09:53.098Z,23.10
2019-06-10T02:12:24.106Z,23.00
2019-06-10T02:14:54.046Z,23.00
2019-06-10T02:17:24.026Z,23.00
2019-06-10T02:19:54.934Z,22.90
2019-06-10T02:22:24.682Z,22.90
2019-06-10T02:24:54.418Z,22.90
2019-06-10T02:27:24.000Z,22.90
2019-06-10T02:29:53.703Z,23.00
2019-06-10T02:32:31.662Z,23.00
2019-06-10T02:35:08.102Z,23.00
2019-06-10T02:37:32.240Z,22.90
2019-06-10T02:39:57.129Z,22.90
2019-06-10T02:42:30.681Z,22.80
2019-06-10T02:45:03.284Z,22.80
2019-06-10T02:47:35.170Z,22.80
2019-06-10T02:50:07.773Z,22.80
2019-06-10T02:52:38.255Z,22.70
2019-06-10T02:55:05.116Z,22.70
2019-06-10T02:57:39.652Z,22.60
2019-06-10T03:00:19.803Z,22.60
2019-06-10T03:02:39.558Z,22.60
2019-06-10T03:05:09.223Z,22.60
2019-06-10T03:07:38.932Z,22.60
2019-06-10T03:10:08.636Z,22.70
2019-06-10T03:12:38.337Z,22.80
2019-06-10T03:15:08.845Z,22.70
2019-06-10T03:17:38.433Z,22.70
2019-06-10T03:20:08.475Z,22.60
2019-06-10T03:22:38.112Z,22.60
2019-06-10T03:25:07.826Z,22.50
2019-06-10T03:27:37.426Z,22.50
2019-06-10T03:30:15.798Z,22.60
2019-06-10T03:32:45.356Z,22.60
2019-06-10T03:35:12.992Z,22.50
2019-06-10T03:37:42.374Z,22.60
2019-06-10T03:40:13.105Z,22.60
2019-06-10T03:42:42.908Z,22.50
2019-06-10T03:45:12.915Z,22.40
2019-06-10T03:47:42.802Z,22.40
2019-06-10T03:50:13.369Z,22.40
2019-06-10T03:52:43.261Z,22.50
2019-06-10T03:55:13.425Z,22.60
2019-06-10T03:57:43.117Z,22.70
2019-06-10T04:00:14.008Z,22.70
2019-06-10T04:02:43.895Z,22.80
2019-06-10T04:05:13.620Z,22.80
2019-06-10T04:07:43.254Z,22.80
2019-06-10T04:10:13.101Z,22.80
2019-06-10T04:12:43.434Z,22.80
2019-06-10T04:15:13.459Z,22.70
2019-06-10T04:17:43.108Z,22.70
2019-06-10T04:20:15.448Z,22.80
2019-06-10T04:22:44.470Z,22.90
2019-06-10T04:25:14.361Z,23.10
2019-06-10T04:27:43.844Z,23.20
2019-06-10T04:30:16.604Z,23.40
2019-06-10T04:32:44.945Z,23.50
2019-06-10T04:35:14.573Z,23.50
2019-06-10T04:37:44.197Z,23.60
2019-06-10T04:40:13.939Z,23.60
2019-06-10T04:42:43.737Z,23.60
2019-06-10T04:45:13.657Z,23.60
2019-06-10T04:47:43.330Z,23.50
2019-06-10T04:50:23.941Z,23.20
2019-06-10T04:52:44.212Z,23.30
2019-06-10T04:55:13.946Z,23.60
2019-06-10T04:57:43.582Z,23.90
2019-06-10T05:00:14.728Z,23.80
2019-06-10T05:02:44.459Z,23.90
2019-06-10T05:05:14.103Z,24.10
2019-06-10T05:07:43.612Z,24.20
2019-06-10T05:10:13.512Z,24.30
2019-06-10T05:12:43.383Z,24.30
2019-06-10T05:15:14.145Z,24.60
2019-06-10T05:17:43.937Z,24.60
2019-06-10T05:20:13.895Z,24.40
2019-06-10T05:22:43.389Z,24.20
2019-06-10T05:25:13.137Z,23.80
2019-06-10T05:27:43.059Z,23.80
2019-06-10T05:30:13.173Z,24.20
2019-06-10T05:32:43.240Z,24.00
2019-06-10T05:35:13.211Z,23.70
2019-06-10T05:37:42.846Z,23.60
2019-06-10T05:40:13.029Z,23.70
2019-06-10T05:42:42.760Z,23.80
2019-06-10T05:45:12.862Z,24.10
2019-06-10T05:47:42.842Z,24.30
2019-06-10T05:50:13.989Z,24.60
2019-06-10T05:52:43.552Z,24.70
2019-06-10T05:55:13.217Z,25.00
2019-06-10T05:57:42.984Z,25.30
2019-06-10T06:00:14.918Z,25.60
2019-06-10T06:02:44.127Z,25.90
2019-06-10T06:05:14.075Z,25.90
2019-06-10T06:07:43.797Z,25.70
2019-06-10T06:10:13.872Z,25.60
2019-06-10T06:12:43.524Z,25.50
2019-06-10T06:15:13.450Z,25.50
2019-06-10T06:17:43.388Z,25.40
2019-06-10T06:20:13.459Z,25.50
2019-06-10T06:22:43.193Z,25.50
2019-06-10T06:25:15.519Z,25.60
2019-06-10T06:27:45.406Z,25.70
2019-06-10T06:30:18.753Z,25.90
2019-06-10T06:32:46.931Z,26.00
2019-06-10T06:35:16.684Z,26.00
2019-06-10T06:37:46.260Z,26.10
2019-06-10T06:40:16.071Z,26.10
2019-06-10T06:42:45.649Z,26.10
2019-06-10T06:45:16.962Z,26.30
2019-06-10T06:47:46.468Z,26.40
2019-06-10T06:50:16.406Z,26.40
2019-06-10T06:53:15.336Z,26.40
2019-06-10T06:55:17.537Z,26.50
2019-06-10T06:57:47.185Z,26.50
2019-06-10T07:00:38.693Z,26.50
2019-06-10T07:02:52.820Z,26.60
2019-06-10T07:05:22.952Z,26.70
2019-06-10T07:07:53.392Z,26.90
2019-06-10T07:10:23.317Z,26.90
2019-06-10T07:12:54.630Z,26.90
2019-06-10T07:15:41.098Z,27.00
2019-06-10T07:18:13.002Z,27.10
2019-06-10T07:20:45.635Z,27.00
2019-06-10T07:23:14.739Z,27.00
2019-06-10T07:25:47.235Z,27.00
2019-06-10T07:28:15.638Z,27.00
2019-06-10T07:30:51.203Z,26.90
2019-06-10T07:33:16.700Z,26.90
2019-06-10T07:35:46.275Z,26.90
2019-06-10T07:38:15.893Z,26.80
2019-06-10T07:40:45.909Z,26.80
2019-06-10T07:43:15.713Z,26.80
2019-06-10T07:45:47.956Z,26.90
2019-06-10T07:48:16.594Z,26.90
2019-06-10T07:50:46.302Z,26.90
2019-06-10T07:53:33.167Z,26.90
2019-06-10T07:56:03.505Z,26.80
2019-06-10T07:58:35.197Z,26.90
2019-06-10T08:01:04.641Z,27.10
2019-06-10T08:03:35.306Z,27.10
2019-06-10T08:06:06.503Z,27.20
2019-06-10T08:08:36.827Z,27.30
2019-06-10T08:11:06.575Z,27.40
2019-06-10T08:13:37.254Z,27.50
2019-06-10T08:16:06.941Z,27.50
2019-06-10T08:18:41.727Z,27.40
2019-06-10T08:21:07.963Z,27.30
2019-06-10T08:23:38.542Z,27.40
2019-06-10T08:26:08.261Z,27.60
2019-06-10T08:28:37.823Z,27.40
2019-06-10T08:31:07.460Z,27.40
2019-06-10T08:33:37.032Z,27.50
2019-06-10T08:36:06.646Z,27.50
2019-06-10T08:38:36.359Z,27.60
2019-06-10T08:41:07.981Z,27.50
2019-06-10T08:43:38.538Z,27.60
2019-06-10T08:46:08.217Z,27.70
2019-06-10T08:48:55.601Z,27.70
2019-06-10T08:51:46.624Z,27.70
2019-06-10T08:54:14.267Z,27.80
2019-06-10T08:56:47.654Z,27.80
2019-06-10T08:59:15.237Z,27.90
2019-06-10T09:01:48.360Z,27.90
2019-06-10T09:04:16.697Z,27.90
2019-06-10T09:06:49.546Z,28.10
2019-06-10T09:09:17.669Z,28.40
2019-06-10T09:11:49.682Z,28.60
2019-06-10T09:14:18.428Z,29.10
2019-06-10T09:16:49.351Z,29.50
2019-06-10T09:19:19.209Z,29.70
2019-06-10T09:21:51.569Z,29.90
2019-06-10T09:24:22.258Z,30.60
2019-06-10T09:26:54.814Z,31.30
2019-06-10T09:29:23.023Z,31.90
2019-06-10T09:31:55.559Z,31.80
2019-06-10T09:34:23.970Z,31.20
2019-06-10T09:36:56.579Z,30.90
2019-06-10T09:39:24.944Z,30.70
2019-06-10T09:42:02.317Z,30.90
2019-06-10T09:44:25.765Z,31.20
2019-06-10T09:47:00.107Z,31.40
2019-06-10T09:49:28.420Z,31.30
2019-06-10T09:51:58.056Z,31.20
2019-06-10T09:54:28.839Z,31.60
2019-06-10T09:56:58.542Z,31.30
2019-06-10T09:59:28.123Z,31.60
2019-06-10T10:02:02.540Z,31.90
2019-06-10T10:04:29.246Z,32.20
2019-06-10T10:07:02.928Z,32.50
2019-06-10T10:09:36.696Z,32.50
2019-06-10T10:12:04.382Z,32.70
2019-06-10T10:14:34.098Z,32.60
2019-06-10T10:17:04.834Z,32.70
2019-06-10T10:19:34.642Z,32.80
2019-06-10T10:22:04.296Z,33.20
2019-06-10T10:24:34.192Z,33.40
2019-06-10T10:27:08.272Z,33.20
2019-06-10T10:29:35.106Z,33.10
2019-06-10T10:32:04.746Z,32.80
2019-06-10T10:34:34.416Z,32.60
2019-06-10T10:37:03.975Z,32.50
2019-06-10T10:39:33.613Z,32.30
2019-06-10T10:42:03.926Z,32.20
2019-06-10T10:44:33.691Z,32.00
2019-06-10T10:47:03.816Z,32.20
2019-06-10T10:49:33.474Z,32.20
2019-06-10T10:52:03.061Z,32.30
2019-06-10T10:54:36.430Z,32.40
2019-06-10T10:57:03.819Z,32.50
2019-06-10T10:59:34.526Z,32.40
2019-06-10T11:02:04.195Z,32.10
2019-06-10T11:04:33.902Z,32.30
2019-06-10T11:07:03.555Z,32.00
2019-06-10T11:09:34.272Z,32.30
2019-06-10T11:12:04.512Z,32.30
2019-06-10T11:14:34.322Z,32.50
2019-06-10T11:17:03.952Z,32.30
2019-06-10T11:19:33.627Z,32.30
2019-06-10T11:22:03.161Z,32.00
2019-06-10T11:24:40.157Z,32.30
2019-06-10T11:27:05.238Z,32.90
2019-06-10T11:29:34.800Z,33.00
2019-06-10T11:32:04.643Z,32.70
2019-06-10T11:34:34.138Z,32.70
2019-06-10T11:37:03.700Z,33.20
2019-06-10T11:39:37.846Z,33.00
2019-06-10T11:42:04.699Z,32.80
2019-06-10T11:44:35.413Z,33.10
2019-06-10T11:47:05.165Z,33.40
2019-06-10T11:49:34.730Z,33.20
2019-06-10T11:52:04.382Z,33.20
2019-06-10T11:54:47.847Z,32.70
2019-06-10T11:57:05.354Z,32.50
2019-06-10T11:59:34.928Z,32.40
2019-06-10T12:02:05.996Z,32.30
2019-06-10T12:04:35.829Z,32.40
2019-06-10T12:07:05.475Z,32.70
2019-06-10T12:09:34.974Z,32.70
2019-06-10T12:12:04.695Z,32.40
2019-06-10T12:14:34.322Z,32.50
2019-06-10T12:17:34.956Z,32.50
2019-06-10T12:19:35.231Z,32.60
2019-06-10T12:22:07.546Z,32.60
2019-06-10T12:24:36.077Z,32.60
2019-06-10T12:27:05.578Z,32.90
2019-06-10T12:29:35.253Z,32.50
2019-06-10T12:32:07.205Z,32.00
2019-06-10T12:34:36.718Z,31.80
2019-06-10T12:37:11.355Z,31.50
2019-06-10T12:39:37.994Z,31.40
2019-06-10T12:42:10.959Z,31.40
2019-06-10T12:44:38.838Z,31.80
2019-06-10T12:47:08.474Z,32.20
2019-06-10T12:49:38.037Z,32.30
2019-06-10T12:52:07.874Z,32.30
2019-06-10T12:54:37.515Z,32.30
2019-06-10T12:57:07.330Z,32.00
2019-06-10T12:59:37.004Z,31.80
2019-06-10T13:02:16.732Z,31.40
2019-06-10T13:04:38.984Z,31.30
2019-06-10T13:07:09.316Z,31.30
2019-06-10T13:09:40.250Z,31.40
2019-06-10T13:12:12.306Z,31.30
2019-06-10T13:14:43.516Z,31.50
2019-06-10T13:17:13.171Z,32.10
2019-06-10T13:19:43.295Z,32.60
2019-06-10T13:22:14.252Z,32.70
2019-06-10T13:24:43.743Z,32.40
2019-06-10T13:27:13.407Z,32.10
2019-06-10T13:29:43.953Z,32.50
2019-06-10T13:32:14.739Z,32.20
2019-06-10T13:34:44.237Z,31.70
2019-06-10T13:37:16.126Z,31.70
2019-06-10T13:39:45.166Z,31.70
2019-06-10T13:42:14.948Z,31.80
2019-06-10T13:44:44.660Z,31.80
2019-06-10T13:47:15.919Z,31.80
2019-06-10T13:49:45.495Z,31.90
2019-06-10T13:52:16.838Z,32.50
2019-06-10T13:54:46.497Z,32.60
2019-06-10T13:57:16.147Z,32.20
2019-06-10T13:59:46.550Z,32.00
2019-06-10T14:02:17.574Z,32.00
2019-06-10T14:04:48.290Z,32.40
2019-06-10T14:07:17.857Z,32.80
2019-06-10T14:09:47.789Z,33.00
2019-06-10T14:12:17.888Z,33.40
2019-06-10T14:14:47.698Z,32.60
2019-06-10T14:17:19.397Z,32.20
2019-06-10T14:19:48.466Z,32.30
2019-06-10T14:22:18.033Z,32.50
2019-06-10T14:24:47.614Z,32.70
2019-06-10T14:27:21.184Z,32.40
2019-06-10T14:29:48.692Z,32.40
2019-06-10T14:32:18.254Z,32.00
2019-06-10T14:34:47.758Z,32.00
2019-06-10T14:37:32.224Z,31.60
2019-06-10T14:39:48.661Z,31.90
2019-06-10T14:42:18.367Z,32.10
2019-06-10T14:44:47.975Z,32.10
2019-06-10T14:47:17.619Z,31.70
2019-06-10T14:49:47.242Z,31.70
2019-06-10T14:52:17.071Z,32.00
2019-06-10T14:54:47.842Z,31.80
2019-06-10T14:57:17.430Z,31.70
2019-06-10T14:59:46.994Z,31.80
2019-06-10T15:02:17.502Z,31.80
2019-06-10T15:04:47.311Z,31.60
2019-06-10T15:07:16.810Z,31.70
2019-06-10T15:09:46.442Z,31.60
2019-06-10T15:12:17.447Z,31.60
2019-06-10T15:14:47.198Z,31.50
2019-06-10T15:17:16.964Z,31.40
2019-06-10T15:19:46.577Z,31.50
2019-06-10T15:22:17.006Z,31.70
2019-06-10T15:24:46.791Z,31.50
2019-06-10T15:27:26.695Z,31.90
2019-06-10T15:29:47.406Z,32.00
2019-06-10T15:32:29.769Z,32.10
2019-06-10T15:34:48.364Z,31.80
2019-06-10T15:37:19.363Z,31.50
2019-06-10T15:39:49.121Z,31.60
2019-06-10T15:42:19.734Z,31.50
2019-06-10T15:44:53.493Z,31.40
2019-06-10T15:47:25.964Z,31.40
2019-06-10T15:49:52.559Z,31.40
2019-06-10T15:52:24.915Z,31.30
2019-06-10T15:54:53.434Z,31.40
2019-06-10T15:57:38.949Z,31.30
2019-06-10T15:59:54.192Z,31.40
2019-06-10T16:02:25.575Z,31.30
2019-06-10T16:04:55.125Z,31.20
2019-06-10T16:07:25.627Z,31.10
2019-06-10T16:09:55.541Z,31.10
2019-06-10T16:12:26.932Z,31.00
2019-06-10T16:14:56.724Z,31.00
2019-06-10T16:17:29.800Z,31.00
2019-06-10T16:19:57.744Z,31.00
2019-06-10T16:22:27.450Z,30.90
2019-06-10T16:24:57.111Z,30.80
2019-06-10T16:27:43.616Z,30.70
2019-06-10T16:29:59.130Z,30.80
2019-06-10T16:32:28.778Z,30.80
2019-06-10T16:34:58.410Z,30.90
2019-06-10T16:37:28.007Z,30.70
2019-06-10T16:39:57.701Z,30.60
2019-06-10T16:42:27.548Z,30.70
2019-06-10T16:44:57.440Z,30.60
2019-06-10T16:47:27.406Z,30.50
2019-06-10T16:49:57.003Z,30.50
2019-06-10T16:52:27.717Z,30.30
2019-06-10T16:54:57.393Z,30.30
2019-06-10T16:57:27.393Z,30.20
2019-06-10T16:59:58.057Z,30.20
2019-06-10T17:02:27.697Z,30.20
2019-06-10T17:04:58.521Z,30.20
2019-06-10T17:07:29.207Z,30.10
2019-06-10T17:09:58.887Z,29.90
2019-06-10T17:12:28.527Z,29.80
2019-06-10T17:14:58.150Z,29.90
2019-06-10T17:17:28.630Z,29.90
2019-06-10T17:19:59.671Z,29.80
2019-06-10T17:22:30.971Z,29.80
2019-06-10T17:25:00.650Z,29.80
2019-06-10T17:27:32.634Z,29.80
2019-06-10T17:30:02.856Z,29.80
2019-06-10T17:32:33.812Z,29.70
2019-06-10T17:35:03.855Z,29.80
2019-06-10T17:37:33.750Z,29.60
2019-06-10T17:40:05.338Z,29.50
2019-06-10T17:42:38.280Z,29.50
2019-06-10T17:45:07.029Z,29.30
2019-06-10T17:47:36.748Z,29.30
2019-06-10T17:50:07.892Z,29.30
2019-06-10T17:52:38.864Z,29.20
2019-06-10T17:55:09.281Z,29.10
2019-06-10T17:57:39.106Z,29.00
2019-06-10T18:00:14.118Z,29.00
2019-06-10T18:02:42.569Z,28.90
2019-06-10T18:05:12.831Z,29.00
2019-06-10T18:07:42.548Z,28.90
2019-06-10T18:10:13.231Z,29.00
2019-06-10T18:12:42.899Z,29.00
2019-06-10T18:15:12.910Z,29.00
2019-06-10T18:17:42.758Z,29.00
2019-06-10T18:20:13.586Z,29.00
2019-06-10T18:22:43.287Z,29.00
2019-06-10T18:25:13.022Z,29.00
2019-06-10T18:27:42.686Z,28.90
2019-06-10T18:30:14.296Z,29.00
2019-06-10T18:32:44.116Z,29.00
2019-06-10T18:35:14.421Z,28.80
2019-06-10T18:37:44.206Z,28.70
2019-06-10T18:40:14.723Z,28.60
2019-06-10T18:42:44.638Z,28.60
2019-06-10T18:45:15.106Z,28.50
2019-06-10T18:47:44.788Z,28.50
2019-06-10T18:50:15.926Z,28.40
2019-06-10T18:52:45.436Z,28.40
2019-06-10T18:55:15.887Z,28.40
2019-06-10T18:57:45.582Z,28.30
2019-06-10T19:00:15.697Z,28.30
2019-06-10T19:02:46.414Z,28.20
2019-06-10T19:05:16.626Z,28.20
2019-06-10T19:07:46.935Z,28.20
2019-06-10T19:10:17.082Z,28.20
2019-06-10T19:12:46.805Z,28.20
2019-06-10T19:15:18.224Z,28.20
2019-06-10T19:17:47.858Z,28.30
2019-06-10T19:20:17.920Z,28.30
2019-06-10T19:22:47.582Z,28.20
2019-06-10T19:25:17.401Z,28.20
2019-06-10T19:27:46.967Z,28.20
2019-06-10T19:30:17.678Z,28.10
2019-06-10T19:32:47.380Z,28.10
2019-06-10T19:35:17.191Z,28.10
2019-06-10T19:37:46.748Z,28.10
2019-06-10T19:40:16.633Z,28.10
2019-06-10T19:42:46.196Z,28.10
2019-06-10T19:45:16.228Z,28.10
2019-06-10T19:47:45.983Z,28.00
2019-06-10T19:50:15.915Z,28.10
2019-06-10T19:52:45.605Z,28.10
2019-06-10T19:55:15.709Z,28.10
2019-06-10T19:57:45.371Z,28.10
2019-06-10T20:00:15.725Z,28.00
2019-06-10T20:02:46.997Z,28.00
2019-06-10T20:05:17.197Z,28.10
2019-06-10T20:07:50.258Z,28.10
2019-06-10T20:10:19.761Z,28.10
2019-06-10T20:12:49.501Z,28.10
2019-06-10T20:15:25.836Z,28.20
2019-06-10T20:17:55.476Z,28.20
2019-06-10T20:20:25.156Z,28.30
2019-06-10T20:22:57.364Z,28.50
2019-06-10T20:25:26.160Z,28.50
2019-06-10T20:27:55.835Z,28.40
2019-06-10T20:30:28.973Z,28.30
2019-06-10T20:32:56.970Z,28.30
2019-06-10T20:35:26.588Z,28.30
2019-06-10T20:37:56.305Z,28.30
2019-06-10T20:40:26.939Z,28.20
2019-06-10T20:42:56.582Z,28.10
2019-06-10T20:45:26.141Z,28.00
2019-06-10T20:47:55.719Z,28.00
2019-06-10T20:50:25.229Z,28.10
2019-06-10T20:52:54.870Z,28.10
2019-06-10T20:55:39.812Z,28.10
2019-06-10T20:58:03.525Z,28.00
2019-06-10T21:00:35.291Z,28.00
2019-06-10T21:03:05.969Z,28.00
2019-06-10T21:05:36.017Z,28.00
2019-06-10T21:08:06.821Z,28.00
2019-06-10T21:10:39.643Z,28.10
2019-06-10T21:13:09.457Z,28.10
2019-06-10T21:15:40.529Z,28.00
2019-06-10T21:18:13.028Z,28.00
2019-06-10T21:20:46.564Z,28.00
2019-06-10T21:23:16.026Z,27.90
2019-06-10T21:25:47.810Z,27.90
2019-06-10T21:28:15.691Z,28.00
2019-06-10T21:30:49.651Z,28.00
2019-06-10T21:33:16.428Z,28.00
2019-06-10T21:35:47.379Z,28.00
2019-06-10T21:38:17.174Z,28.10
2019-06-10T21:40:48.064Z,28.00
2019-06-10T21:43:17.858Z,28.00
2019-06-10T21:45:51.198Z,28.00
2019-06-10T21:48:18.936Z,28.00
2019-06-10T21:50:49.807Z,28.00
2019-06-10T21:53:22.170Z,28.00
2019-06-10T21:55:53.481Z,28.00
2019-06-10T21:58:22.893Z,28.00
2019-06-10T22:01:08.361Z,28.00
2019-06-10T22:03:24.382Z,28.10
2019-06-10T22:05:54.071Z,28.00
2019-06-10T22:08:23.652Z,28.00
2019-06-10T22:10:55.096Z,28.00
2019-06-10T22:13:24.618Z,27.90
2019-06-10T22:15:56.890Z,28.00
2019-06-10T22:18:26.246Z,28.00
2019-06-10T22:20:57.652Z,27.90
2019-06-10T22:23:27.074Z,27.90
2019-06-10T22:25:57.689Z,28.00
2019-06-10T22:28:27.840Z,28.00
2019-06-10T22:31:15.050Z,27.90
2019-06-10T22:33:28.647Z,28.00
2019-06-10T22:35:58.516Z,27.90
2019-06-10T22:38:28.150Z,28.00
2019-06-10T22:40:57.713Z,28.00
2019-06-10T22:43:27.276Z,28.00
2019-06-10T22:45:57.289Z,27.90
2019-06-10T22:48:26.968Z,27.90
2019-06-10T22:50:56.726Z,28.00
2019-06-10T22:53:26.366Z,27.90
2019-06-10T22:55:57.711Z,27.80
2019-06-10T22:58:27.122Z,27.80
2019-06-10T23:00:57.887Z,27.90
2019-06-10T23:03:27.671Z,27.80
2019-06-10T23:05:58.415Z,27.80
2019-06-10T23:08:28.184Z,27.90
2019-06-10T23:10:58.526Z,27.80
2019-06-10T23:13:29.038Z,27.80
2019-06-10T23:15:59.794Z,27.80
2019-06-10T23:18:29.378Z,27.80
2019-06-10T23:20:59.661Z,27.80
2019-06-10T23:23:32.473Z,27.90
2019-06-10T23:26:02.910Z,27.80
2019-06-10T23:28:32.807Z,27.80
2019-06-10T23:31:04.978Z,27.80
2019-06-10T23:33:33.827Z,27.80
2019-06-10T23:36:03.970Z,27.80
2019-06-10T23:38:33.766Z,27.90
2019-06-10T23:41:03.899Z,27.80
2019-06-10T23:43:33.713Z,27.80
2019-06-10T23:46:04.422Z,27.70
2019-06-10T23:48:34.405Z,27.70
2019-06-10T23:51:05.058Z,27.60
2019-06-10T23:53:35.250Z,27.60
2019-06-10T23:56:05.212Z,27.60
2019-06-10T23:58:34.916Z,27.60
